Allouez, WI

7:27 AM CDT on May 23, 2015 (GMT -0500)
Bellevue | | Change Station
CLOSE
Current Station
Personal Weather Station
Location: Green Bay, WI
Elevation: 614 ft
Nearby Weather Stations

Elev 614 ft 44.46 °N, 87.98 °W | Updated 4 seconds ago

Clear
Clear
54.7 °F
Feels Like 54.7 °F
N
0.0
Wind Variable Wind from NW
Gusts 0.0 mph

Today
High -- | Low -- °F
--% Chance of Precip.
Yesterday
High -- | Low -- °F
Precip. -- in
5:16 AM 8:21 PM
Waxing Crescent, 29% visible
Pressure 30.32 in
Visibility 10.0 miles
Clouds Clear
Dew Point 38 °F
Humidity 54%
Rainfall 0.00 in
Snow Depth Not available.
UV 1.0 out of 12
Pollen 9.40 out of 12
Air Quality Not available.
Flu Activity Sporadic
METAR KGRB 231153Z 00000KT 10SM CLR 09/02 A3032 RMK AO2 SLP268 T00940017 10094 20044 53011

More Conditions Fewer Conditions

Pressure 30.32 in
Visibility 10.0 miles
Clouds Clear
Dew Point 38 °F
Humidity 54%
Rainfall 0.00 in
Snow Depth Not available.
UV 1.0 out of 12
Pollen 9.40 out of 12
Air Quality Not available.
Flu Activity Sporadic
METAR KGRB 231153Z 00000KT 10SM CLR 09/02 A3032 RMK AO2 SLP268 T00940017 10094 20044 53011

More Conditions Fewer Conditions

10-Day Weather Forecast

Almanac

Astronomy

May. 23, 2015 Rise Set
Actual Time
Civil Twilight
Nautical Twilight
Astronomical Twilight
Moon
Length of Visible Light
Length of Day
Tomorrow will be .
, % of the Moon is Illuminated

Today's Extremes

State Highs State Lows

Community

WunderPhotos

Upload Photos

1,823,440 photos uploaded!

WunderBlogs® & News

Nearby

Air Quality

  Air Quality AQ Index Pollutant
Not available.

Snow Depth

Station Depth Elevation

Earthquake Activity

City Distance Mag. Time & Date
Minimum magnitude displayed is 2.5.

Coastal Water Temperatures

Place Temperature

Stations

Nearby Weather Stations

Station Location Temp. Windchill Dew Point Humidity Wind Precip. Elev Updated Type